createdAt,value
2022-09-22T00:03:48.325Z,8.6
2022-09-22T00:08:52.907Z,8.6
2022-09-22T00:13:57.415Z,8.3
2022-09-22T00:19:01.927Z,8.2
2022-09-22T00:24:05.708Z,8.2
2022-09-22T00:29:09.123Z,8.3
2022-09-22T00:34:13.609Z,8.5
2022-09-22T00:39:18.124Z,8.6
2022-09-22T00:44:21.678Z,8.8
2022-09-22T00:49:26.195Z,8.7
2022-09-22T00:54:30.770Z,8.4
2022-09-22T00:59:35.238Z,8.2
2022-09-22T01:04:38.830Z,8.2
2022-09-22T01:09:43.410Z,8.3
2022-09-22T01:14:47.875Z,8.5
2022-09-22T01:19:51.450Z,8.5
2022-09-22T01:24:55.979Z,8.2
2022-09-22T01:30:00.508Z,7.9
2022-09-22T01:35:04.053Z,7.5
2022-09-22T01:40:08.622Z,7.6
2022-09-22T01:45:13.105Z,7.6
2022-09-22T01:50:16.654Z,7.5
2022-09-22T01:55:21.232Z,7.6
2022-09-22T02:00:25.720Z,7.5
2022-09-22T02:05:30.304Z,7.4
2022-09-22T02:10:33.859Z,7.3
2022-09-22T02:15:38.502Z,7.3
2022-09-22T02:20:42.866Z,7.3
2022-09-22T02:25:46.447Z,7.2
2022-09-22T02:31:10.877Z,7.1
2022-09-22T02:35:55.499Z,7.1
2022-09-22T02:40:59.104Z,7.3
2022-09-22T02:46:03.708Z,7.3
2022-09-22T02:51:08.129Z,7.1
2022-09-22T02:56:11.710Z,7.1
2022-09-22T03:01:16.256Z,7
2022-09-22T03:06:20.755Z,6.9
2022-09-22T03:11:25.306Z,6.9
2022-09-22T03:16:28.820Z,6.7
2022-09-22T03:21:33.362Z,6.7
2022-09-22T03:26:37.927Z,6.5
2022-09-22T03:31:41.447Z,6.4
2022-09-22T03:36:45.971Z,6.4
2022-09-22T03:41:50.554Z,6.5
2022-09-22T03:46:54.048Z,6.6
2022-09-22T03:51:58.598Z,6.4
2022-09-22T03:57:03.193Z,6.3
2022-09-22T04:02:06.719Z,6.2
2022-09-22T04:07:11.324Z,6.2
2022-09-22T04:12:15.751Z,6.3
2022-09-22T04:17:20.490Z,6.2
2022-09-22T04:22:23.843Z,6.3
2022-09-22T04:27:28.379Z,6.3
2022-09-22T04:32:32.937Z,6.2
2022-09-22T04:37:36.496Z,6.2
2022-09-22T04:42:40.021Z,6.1
2022-09-22T04:47:44.574Z,6
2022-09-22T04:52:49.077Z,6
2022-09-22T04:57:53.623Z,6.1
2022-09-22T05:02:57.224Z,6.2
2022-09-22T05:08:01.708Z,5.9
2022-09-22T05:13:06.262Z,6
2022-09-22T05:18:09.836Z,6
2022-09-22T05:23:14.303Z,5.9
2022-09-22T05:28:18.900Z,6
2022-09-22T05:33:22.438Z,6.1
2022-09-22T05:38:26.935Z,6.2
2022-09-22T05:43:31.519Z,6.2
2022-09-22T05:48:35.012Z,6.5
2022-09-22T05:53:39.608Z,6.8
2022-09-22T05:58:44.134Z,7.2
2022-09-22T06:03:48.619Z,7.3
2022-09-22T06:08:52.171Z,7.5
2022-09-22T06:13:56.736Z,7.8
2022-09-22T06:19:01.234Z,8
2022-09-22T06:24:04.985Z,8.1
2022-09-22T06:29:09.360Z,8.4
2022-09-22T06:34:13.873Z,8.6
2022-09-22T06:39:17.458Z,8.8
2022-09-22T06:44:22.001Z,9.2
2022-09-22T06:49:26.511Z,9.3
2022-09-22T06:54:30.016Z,9.6
2022-09-22T06:59:34.620Z,10
2022-09-22T07:04:39.100Z,10.1
2022-09-22T07:09:43.635Z,10
2022-09-22T07:14:47.225Z,10.1
2022-09-22T07:19:51.752Z,10.5
2022-09-22T07:24:56.216Z,10.4
2022-09-22T07:29:59.819Z,10.6
2022-09-22T07:35:04.330Z,11
2022-09-22T07:40:08.936Z,11.2
2022-09-22T07:45:12.475Z,11.7
2022-09-22T07:50:16.930Z,11.6
2022-09-22T07:55:21.479Z,11.6
2022-09-22T08:00:25.099Z,12.1
2022-09-22T08:05:29.560Z,12
2022-09-22T08:10:34.099Z,12.5
2022-09-22T08:15:38.679Z,13.2
2022-09-22T08:20:44.939Z,13
2022-09-22T08:25:46.734Z,13.1
2022-09-22T08:30:51.419Z,13.6
2022-09-22T08:35:54.808Z,14
2022-09-22T08:40:59.359Z,13.9
2022-09-22T08:46:04.111Z,14.7
2022-09-22T08:51:07.432Z,14.7
2022-09-22T08:56:11.941Z,15
2022-09-22T09:01:15.540Z,16.1
2022-09-22T09:06:20.023Z,15.9
2022-09-22T09:16:28.150Z,16.4
2022-09-22T09:21:32.660Z,16.7
2022-09-22T09:26:37.238Z,16.9
2022-09-22T09:31:40.862Z,16.7
2022-09-22T09:36:45.290Z,16.9
2022-09-22T09:41:49.839Z,17.6
2022-09-22T09:46:53.401Z,17.3
2022-09-22T09:51:57.920Z,18
2022-09-22T09:57:02.435Z,17.5
2022-09-22T10:02:07.039Z,17.5
2022-09-22T10:07:10.532Z,18.6
2022-09-22T10:12:15.059Z,20.3
2022-09-22T10:17:19.618Z,19.8
2022-09-22T10:22:23.156Z,18.8
2022-09-22T10:27:27.736Z,18.7
2022-09-22T10:32:32.279Z,17.7
2022-09-22T10:37:35.766Z,18.8
2022-09-22T10:42:40.303Z,19.1
2022-09-22T10:47:44.978Z,18.8
2022-09-22T10:52:48.430Z,18.2
2022-09-22T10:57:52.955Z,18.6
2022-09-22T11:02:57.518Z,19.7
2022-09-22T11:08:02.011Z,18.7
2022-09-22T11:13:05.569Z,18.6
2022-09-22T11:18:10.129Z,18.9
2022-09-22T11:23:14.650Z,19.4
2022-09-22T11:28:18.226Z,19.6
2022-09-22T11:33:22.762Z,18.9
2022-09-22T11:38:27.256Z,19.2
2022-09-22T11:43:30.816Z,18.7
2022-09-22T11:48:35.393Z,19.5
2022-09-22T11:53:39.882Z,20.3
2022-09-22T11:58:43.430Z,20.8
2022-09-22T12:03:48.091Z,18.9
2022-09-22T12:08:52.589Z,17.8
2022-09-22T12:13:57.037Z,17.7
2022-09-22T12:19:00.698Z,17.7
2022-09-22T12:24:05.173Z,19.3
2022-09-22T12:29:09.672Z,20.4
2022-09-22T12:34:13.272Z,18.5
2022-09-22T12:39:17.777Z,19.2
2022-09-22T12:44:22.305Z,19.6
2022-09-22T12:49:25.871Z,19.7
2022-09-22T12:54:30.402Z,19.8
2022-09-22T12:59:34.920Z,19.4
2022-09-22T13:04:39.472Z,18.8
2022-09-22T13:09:43.013Z,19.7
2022-09-22T13:14:46.584Z,18.9
2022-09-22T13:19:51.124Z,19.1
2022-09-22T13:24:55.638Z,19.5
2022-09-22T13:29:59.189Z,18.2
2022-09-22T13:35:03.774Z,19.3
2022-09-22T13:40:08.343Z,20
2022-09-22T13:45:11.826Z,20.2
2022-09-22T13:50:19.127Z,20.3
2022-09-22T13:55:20.912Z,19.8
2022-09-22T14:00:25.418Z,20.3
2022-09-22T14:05:28.977Z,19.4
2022-09-22T14:10:33.505Z,19.3
2022-09-22T14:15:38.064Z,19.3
2022-09-22T14:20:41.614Z,19.4
2022-09-22T14:25:46.169Z,19.2
2022-09-22T14:30:50.679Z,20.1
2022-09-22T14:35:54.359Z,19.8
2022-09-22T14:40:58.817Z,19.1
2022-09-22T14:46:08.726Z,20.3
2022-09-22T14:51:06.883Z,20
2022-09-22T14:56:11.398Z,19.4
2022-09-22T15:01:15.956Z,20.9
2022-09-22T15:06:20.485Z,19.9
2022-09-22T15:11:23.835Z,18.7
2022-09-22T15:16:28.429Z,19.3
2022-09-22T15:21:32.901Z,19.4
2022-09-22T15:26:36.418Z,19.3
2022-09-22T15:31:41.042Z,19.5
2022-09-22T15:36:45.509Z,18.9
2022-09-22T15:41:49.248Z,19
2022-09-22T16:21:07.467Z,18.6
2022-09-22T16:26:11.943Z,18.3
2022-09-22T16:31:15.710Z,18
2022-09-22T16:36:20.054Z,18.2
2022-09-22T16:41:24.619Z,17.4
2022-09-22T16:46:28.441Z,17.4
2022-09-22T16:51:32.695Z,17.2
2022-09-22T16:56:37.175Z,16.8
2022-09-22T17:01:41.804Z,16.5
2022-09-22T17:06:45.364Z,16.4
2022-09-22T17:11:49.827Z,16.2
2022-09-22T17:16:54.355Z,16.1
2022-09-22T17:21:57.947Z,16
2022-09-22T17:27:01.436Z,15.8
2022-09-22T17:32:05.955Z,15.8
2022-09-22T17:37:10.551Z,15.7
2022-09-22T17:42:15.038Z,15.6
2022-09-22T17:47:18.605Z,15.6
2022-09-22T17:52:23.153Z,15.5
2022-09-22T17:57:27.630Z,15.4
2022-09-22T18:02:31.261Z,15.4
2022-09-22T18:07:35.759Z,15.3
2022-09-22T18:12:40.294Z,15.1
2022-09-22T18:17:43.848Z,14.9
2022-09-22T18:22:48.561Z,14.8
2022-09-22T18:27:52.923Z,14.7
2022-09-22T18:32:56.432Z,14.5
2022-09-22T18:38:01.003Z,14.4
2022-09-22T18:43:05.508Z,14.2
2022-09-22T18:48:10.053Z,14.1
2022-09-22T18:53:13.622Z,14
2022-09-22T18:58:18.132Z,13.9
2022-09-22T19:03:22.654Z,13.8
2022-09-22T19:08:26.207Z,13.7
2022-09-22T19:13:30.747Z,13.6
2022-09-22T19:18:35.259Z,13.5
2022-09-22T19:23:38.879Z,13.5
2022-09-22T19:28:43.357Z,13.5
2022-09-22T19:33:47.898Z,13.4
2022-09-22T19:38:51.460Z,13.2
2022-09-22T19:43:55.949Z,13.1
2022-09-22T19:49:00.591Z,13
2022-09-22T19:54:05.051Z,13
2022-09-22T19:59:08.592Z,12.9
2022-09-22T20:04:13.173Z,12.9
2022-09-22T20:09:18.039Z,12.9
2022-09-22T20:14:21.221Z,12.7
2022-09-22T20:19:25.753Z,12.6
2022-09-22T20:24:30.366Z,12.6
2022-09-22T20:29:33.851Z,12.5
2022-09-22T20:34:38.379Z,12.4
2022-09-22T20:39:42.946Z,12.5
2022-09-22T20:44:46.467Z,12.4
2022-09-22T20:49:52.052Z,12.4
2022-09-22T20:54:55.534Z,12.3
2022-09-22T21:00:00.076Z,12.2
2022-09-22T21:05:03.607Z,12.1
2022-09-22T21:10:08.188Z,12.1
2022-09-22T21:15:12.681Z,12
2022-09-22T21:20:16.216Z,12.1
2022-09-22T21:25:20.829Z,12.1
2022-09-22T21:30:25.291Z,12
2022-09-22T21:35:28.837Z,11.8
2022-09-22T21:40:33.493Z,11.7
2022-09-22T21:45:36.916Z,11.7
2022-09-22T21:50:41.485Z,11.6
2022-09-22T21:55:46.031Z,11.5
2022-09-22T22:00:52.009Z,11.6
2022-09-22T22:05:54.065Z,11.6
2022-09-22T22:10:58.645Z,11.5
2022-09-22T22:16:02.212Z,11.5
2022-09-22T22:21:06.715Z,11.5
2022-09-22T22:26:11.274Z,11.4
2022-09-22T22:31:14.859Z,11.3
2022-09-22T22:36:19.314Z,11.1
2022-09-22T22:41:23.883Z,11
2022-09-22T22:46:28.445Z,10.9
2022-09-22T22:51:31.972Z,10.9
2022-09-22T22:56:40.823Z,10.8
2022-09-22T23:01:41.074Z,10.8
2022-09-22T23:06:44.806Z,10.7
2022-09-22T23:11:49.161Z,10.6
2022-09-22T23:16:53.639Z,10.6
2022-09-22T23:21:57.188Z,10.6
2022-09-22T23:27:01.702Z,10.6
2022-09-22T23:32:06.251Z,10.5
2022-09-22T23:37:09.790Z,10.5
2022-09-22T23:42:14.341Z,10.6
2022-09-22T23:47:18.825Z,10.6
2022-09-22T23:52:23.385Z,10.5
2022-09-22T23:57:26.963Z,10.5
